Flight Track Log - Related Links

Times and Time Zones

All times are in EDT time to prevent confusion due to time zone crossing. See the ASQ6151 flight status page for this flight to view local times or setup timezone preferences in your user account.

Time Position Orientation Groundspeed Altitude Reporting Facility
EDT Latitude Longitude Course Direction KTS MPH feet Rate Location/Type
Mon 06:46:02 PM 32.2372 -81.2519 North 228 262 6,400  Level Jacksonville Center
Mon 06:48:00 PM 32.4355 -81.1667 North  Level FlightAware Approximate
Mon 06:49:00 PM 32.6797 -81.1500 North  Level FlightAware Approximate
Mon 06:49:38 PM 32.5222 -81.1703 North 327 376 11,400  Level Jacksonville Center
Mon 06:50:00 PM 32.7913 -81.1386 North  Level FlightAware Approximate
Mon 06:50:38 PM 32.6347 -81.1608 North 354 407 13,100  Level Jacksonville Center
Mon 06:51:00 PM 32.9027 -81.1247 North  Level FlightAware Approximate
Mon 06:52:00 PM 32.7868 -81.1392 North  Level FlightAware Approximate
Mon 06:53:38 PM 32.9392 -81.1328 North 373 429 16,600  Level Jacksonville Center
Mon 06:54:38 PM 33.0497 -81.1231 North 379 436 17,600 1,050 Climbing Jacksonville Center
Mon 06:55:00 PM 33.2169 -81.1000 North  Level FlightAware Approximate
Mon 06:55:38 PM 33.1644 -81.1158 North 396 456 18,700  Level Jacksonville Center
Mon 06:56:38 PM 33.2833 -81.1061 North 406 467 19,700 1,050 Climbing Jacksonville Center
Mon 06:57:38 PM 33.3978 -81.0964 North 411 473 20,800 1,000 Climbing Jacksonville Center
Mon 06:58:38 PM 33.5189 -81.0839 North 421 484 21,700 1,033 Climbing Jacksonville Center
Mon 07:00:00 PM 33.6687 -81.0610 North  Level FlightAware Approximate
Mon 07:00:38 PM 33.7708 -81.0611 North 426 490 23,900  Level Jacksonville Center
Mon 07:02:38 PM 34.0033 -81.1114 350° North 413 475 25,800 967 Climbing Jacksonville Center
Mon 07:03:38 PM 34.1042 -81.1544 341° North 420 483 26,800 968 Climbing Jacksonville Center
Mon 07:06:00 PM 34.2370 -81.2001 344° North  Level FlightAware Approximate
Mon 07:06:46 PM 34.4567 -81.3028 344° North 420 483 29,800  Level Atlanta Center
Mon 07:07:46 PM 34.5683 -81.3472 342° North 413 475 30,800 950 Climbing Atlanta Center
Mon 07:08:46 PM 34.6778 -81.3917 342° North 413 475 31,700 800 Climbing Atlanta Center
Mon 07:09:46 PM 34.7914 -81.4386 341° North 420 483 32,400 850 Climbing Atlanta Center
Mon 07:10:46 PM 34.9050 -81.4833 342° North 420 483 33,400 1,000 Climbing Atlanta Center
Mon 07:11:46 PM 35.0186 -81.5306 341° North 428 493 34,400 1,000 Climbing Atlanta Center
Mon 07:12:46 PM 35.1303 -81.5806 340° North 428 493 35,400 800 Climbing Atlanta Center
Mon 07:13:46 PM 35.2292 -81.6208 342° North 428 493 36,000 300 Climbing Atlanta Center
Mon 07:14:46 PM 35.3447 -81.6683 341° North 428 493 36,000  Level Atlanta Center
Mon 07:16:00 PM 35.4776 -81.7147 344° North  Level FlightAware Approximate
Mon 07:16:46 PM 35.5867 -81.7711 344° North 456 525 36,000  Level Atlanta Center
Mon 07:18:46 PM 35.8189 -81.9261 332° Northwest 458 527 36,000  Level Atlanta Center
Mon 07:19:46 PM 35.9267 -82.0103 328° Northwest 458 527 36,000  Level Atlanta Center
Mon 07:21:46 PM 36.1381 -82.1772 327° Northwest 458 527 36,000  Level Atlanta Center
Mon 07:22:46 PM 36.2289 -82.2550 325° Northwest 448 516 36,000  Level Atlanta Center
Mon 07:23:46 PM 36.3344 -82.3403 327° Northwest 448 516 36,000  Level Atlanta Center
Mon 07:24:46 PM 36.4378 -82.4258 326° Northwest 448 516 36,000  Level Atlanta Center
Mon 07:25:46 PM 36.5431 -82.5117 327° Northwest 448 516 36,000  Level Atlanta Center
Mon 07:27:17 PM 36.7019 -82.6431 326° Northwest 451 519 36,000  Level Indianapolis Center
Mon 07:29:20 PM 36.9203 -82.8250 326° Northwest 459 528 36,000  Level Indianapolis Center
Mon 07:30:22 PM 37.0278 -82.9142 326° Northwest 453 521 36,000  Level Indianapolis Center
Mon 07:31:24 PM 37.1322 -83.0022 326° Northwest 454 522 36,000  Level Indianapolis Center
Mon 07:32:25 PM 37.2367 -83.0908 326° Northwest 455 524 36,000  Level Indianapolis Center
Mon 07:33:27 PM 37.3608 -83.1942 327° Northwest 458 527 36,000  Level Indianapolis Center
Mon 07:34:29 PM 37.4686 -83.2861 326° Northwest 464 534 36,000  Level Indianapolis Center
Mon 07:35:30 PM 37.5767 -83.3778 326° Northwest 467 537 36,000  Level Indianapolis Center
Mon 07:36:32 PM 37.6853 -83.4706 326° Northwest 471 542 36,000  Level Indianapolis Center
Mon 07:37:34 PM 37.7933 -83.5633 326° Northwest 472 543 36,000 -244 Level Indianapolis Center
Mon 07:38:35 PM 37.9044 -83.6564 327° Northwest 478 550 35,500 -780 Descending Indianapolis Center
Mon 07:39:37 PM 38.0406 -83.7594 329° Northwest 486 559 34,400 -366 Descending Indianapolis Center
Mon 07:41:00 PM 38.1684 -83.8750 325° Northwest  Level FlightAware Approximate
Mon 07:42:41 PM 38.3858 -84.0186 319° Northwest 480 552 34,000  Level Indianapolis Center
Mon 07:43:43 PM 38.5011 -84.1086 329° Northwest 483 556 34,000  Level Indianapolis Center
Mon 07:44:44 PM 38.6181 -84.1981 329° Northwest 490 564 34,000  Level Indianapolis Center
Mon 07:45:46 PM 38.7506 -84.2989 329° Northwest 488 562 34,000  Level Indianapolis Center
Mon 07:46:48 PM 38.8678 -84.3892 329° Northwest 488 562 34,000  Level Indianapolis Center
Mon 07:47:49 PM 38.9847 -84.4800 329° Northwest 488 562 34,000  Level Indianapolis Center
Mon 07:48:00 PM 38.7985 -84.4899 319° Northwest  Level FlightAware Approximate
Mon 07:48:51 PM 39.0997 -84.5683 329° Northwest 480 552 34,000  Level Indianapolis Center
Mon 07:49:52 PM 39.2125 -84.6569 329° Northwest 470 541 34,000  Level Indianapolis Center
Mon 07:50:54 PM 39.3250 -84.7442 329° Northwest 466 536 34,000 -439 Level Indianapolis Center
Mon 07:51:55 PM 39.4364 -84.8319 329° Northwest 464 534 33,100 -1,317 Descending Indianapolis Center
Mon 07:52:57 PM 39.5517 -84.9225 329° Northwest 456 525 31,300 -2,000 Descending Indianapolis Center
Mon 07:53:58 PM 39.6592 -85.0081 329° Northwest 455 524 29,000 -1,610 Descending Indianapolis Center
Mon 07:55:00 PM 39.7619 -85.0889 329° Northwest 439 505 28,000 -919 Descending Indianapolis Center
Mon 07:56:02 PM 39.8658 -85.1725 328° Northwest 441 507 27,100 -878 Descending Indianapolis Center
Mon 07:57:03 PM 39.9733 -85.2589 328° Northwest 454 522 26,200 -537 Descending Indianapolis Center
Mon 07:58:05 PM 40.0833 -85.3475 328° Northwest 464 534 26,000 -133 Descending Indianapolis Center
Mon 07:58:33 PM 40.1475 -85.3969 330° Northwest 462 532 26,000 -330 Level Chicago Center
Mon 07:59:36 PM 40.2542 -85.4831 328° Northwest 457 526 25,500 -550 Descending Chicago Center
Mon 08:02:11 PM 40.5314 -85.6939 330° Northwest 445 512 24,000 -645 Descending Indianapolis Center
Mon 08:02:42 PM 40.5983 -85.7297 338° Northwest 446 513 23,500 -927 Descending Chicago Center
Mon 08:04:00 PM 40.7420 -85.7805 345° North  Level FlightAware Approximate
Mon 08:04:14 PM 40.7061 -85.9114 345° North 454 522 22,100  Level Indianapolis Center
Mon 08:04:46 PM 40.7458 -85.9883 304° West 447 514 22,000 -293 Descending Chicago Center
Mon 08:06:17 PM 40.8556 -86.1989 305° West 434 499 21,500 -435 Descending Indianapolis Center
Mon 08:06:50 PM 40.8817 -86.2508 304° West 432 497 21,100 -1,137 Descending Chicago Center
Mon 08:07:52 PM 40.9631 -86.4056 305° West 426 490 19,700 -1,360 Descending Chicago Center
Mon 08:10:57 PM 41.1486 -86.7678 304° West 394 453 15,500 -1,433 Descending Chicago Center
Mon 08:11:59 PM 41.2222 -86.9083 305° West 388 447 13,800 -1,452 Descending Chicago Center
Mon 08:13:01 PM 41.2786 -87.0244 303° West 378 435 12,500 -1,210 Descending Chicago Center
Mon 08:14:03 PM 41.3364 -87.1400 304° West 378 435 11,300 -677 Descending Chicago Center
Mon 08:15:14 PM 41.4333 -87.2667 316° Northwest 358 412 11,000 -458 Descending Chicago TRACON
Mon 08:16:14 PM 41.5000 -87.3500 317° Northwest 355 409 10,300 -522 Descending Chicago TRACON
Mon 08:17:09 PM 41.5661 -87.4283 318° Northwest 355 409 10,000 -101 Descending Chicago Center
Mon 08:19:13 PM 41.7133 -87.5925 320° Northwest 348 400 10,000 -484 Level Chicago Center
Mon 08:20:15 PM 41.7714 -87.6594 319° Northwest 290 334 8,500 -1,343 Descending Chicago Center
Mon 08:21:27 PM 41.8167 -87.7667 300° West 280 322 7,000 -871 Descending Chicago TRACON
Mon 08:23:00 PM 41.9667 -87.9000 312° West  Level FlightAware Approximate
Mon 08:23:21 PM 41.8042 -87.9292 312° West 259 298 5,800  Level Chicago Center
Mon 08:24:23 PM 41.7564 -87.9808 219° Southwest 231 266 5,000 -548 Descending Chicago Center
Mon 08:26:27 PM 41.8164 -88.0453 321° Northwest 196 226 4,100 -484 Descending Chicago Center
Mon 08:27:29 PM 41.8617 -88.0100 30° Northeast 192 221 3,500 -789 Descending Chicago Center
Mon 08:28:21 PM 41.9000 -87.9667 40° Northeast 172 198 2,600 -706 Descending Chicago TRACON
Mon 08:30:36 PM 41.9572 -87.8967 42° Northeast 163 188 1,300 -578 Descending Chicago Center
Mon 08:32:00 PM 41.9667 -87.9000 312° West  Level FlightAware Approximate

Login

Don't have an account? Register now (free) for customized features, flight alerts, and more!